sensor_id;sensor_type;location;lat;lon;timestamp;P1;durP1;ratioP1;P2;durP2;ratioP2
52730;SDS011;38624;53.242;6.974;2023-08-17T00:00:10;7.07;;;3.03;;
52730;SDS011;38624;53.242;6.974;2023-08-17T00:02:38;7.05;;;2.50;;
52730;SDS011;38624;53.242;6.974;2023-08-17T00:05:07;6.57;;;1.98;;
52730;SDS011;38624;53.242;6.974;2023-08-17T00:07:33;5.18;;;2.72;;
52730;SDS011;38624;53.242;6.974;2023-08-17T00:09:59;2.90;;;1.80;;
52730;SDS011;38624;53.242;6.974;2023-08-17T00:12:25;6.27;;;2.40;;
52730;SDS011;38624;53.242;6.974;2023-08-17T00:14:51;7.87;;;2.93;;
52730;SDS011;38624;53.242;6.974;2023-08-17T00:19:44;7.55;;;2.33;;
52730;SDS011;38624;53.242;6.974;2023-08-17T00:22:10;3.43;;;2.27;;
52730;SDS011;38624;53.242;6.974;2023-08-17T00:24:36;7.23;;;2.70;;
52730;SDS011;38624;53.242;6.974;2023-08-17T00:27:01;7.30;;;2.50;;
52730;SDS011;38624;53.242;6.974;2023-08-17T00:29:28;6.60;;;2.55;;
52730;SDS011;38624;53.242;6.974;2023-08-17T00:31:54;3.93;;;2.43;;
52730;SDS011;38624;53.242;6.974;2023-08-17T00:34:20;6.37;;;2.53;;
52730;SDS011;38624;53.242;6.974;2023-08-17T00:36:46;8.53;;;2.50;;
52730;SDS011;38624;53.242;6.974;2023-08-17T00:39:11;6.40;;;2.87;;
52730;SDS011;38624;53.242;6.974;2023-08-17T00:41:37;7.60;;;2.30;;
52730;SDS011;38624;53.242;6.974;2023-08-17T00:44:03;4.50;;;2.20;;
52730;SDS011;38624;53.242;6.974;2023-08-17T00:46:29;5.27;;;2.57;;
52730;SDS011;38624;53.242;6.974;2023-08-17T00:48:55;6.35;;;2.33;;
52730;SDS011;38624;53.242;6.974;2023-08-17T00:51:25;4.72;;;2.50;;
52730;SDS011;38624;53.242;6.974;2023-08-17T00:53:52;5.05;;;2.38;;
52730;SDS011;38624;53.242;6.974;2023-08-17T00:56:21;5.10;;;2.65;;
52730;SDS011;38624;53.242;6.974;2023-08-17T00:58:47;5.47;;;2.47;;
52730;SDS011;38624;53.242;6.974;2023-08-17T01:01:14;9.32;;;2.88;;
52730;SDS011;38624;53.242;6.974;2023-08-17T01:03:40;4.77;;;2.20;;
52730;SDS011;38624;53.242;6.974;2023-08-17T01:06:07;5.05;;;2.65;;
52730;SDS011;38624;53.242;6.974;2023-08-17T01:08:33;5.07;;;2.70;;
52730;SDS011;38624;53.242;6.974;2023-08-17T01:11:00;5.63;;;2.40;;
52730;SDS011;38624;53.242;6.974;2023-08-17T01:16:26;7.82;;;3.22;;
52730;SDS011;38624;53.242;6.974;2023-08-17T01:18:55;7.18;;;2.67;;
52730;SDS011;38624;53.242;6.974;2023-08-17T01:21:24;6.07;;;2.67;;
52730;SDS011;38624;53.242;6.974;2023-08-17T01:23:57;4.57;;;2.90;;
52730;SDS011;38624;53.242;6.974;2023-08-17T01:26:24;4.35;;;2.20;;
52730;SDS011;38624;53.242;6.974;2023-08-17T01:28:50;5.57;;;2.20;;
52730;SDS011;38624;53.242;6.974;2023-08-17T01:31:20;5.10;;;2.30;;
52730;SDS011;38624;53.242;6.974;2023-08-17T01:33:50;3.67;;;2.00;;
52730;SDS011;38624;53.242;6.974;2023-08-17T01:36:22;11.32;;;2.78;;
52730;SDS011;38624;53.242;6.974;2023-08-17T01:38:52;6.93;;;2.30;;
52730;SDS011;38624;53.242;6.974;2023-08-17T01:41:20;7.68;;;2.75;;
52730;SDS011;38624;53.242;6.974;2023-08-17T01:46:14;6.88;;;2.53;;
52730;SDS011;38624;53.242;6.974;2023-08-17T01:48:40;6.80;;;2.65;;
52730;SDS011;38624;53.242;6.974;2023-08-17T01:51:07;6.65;;;2.65;;
52730;SDS011;38624;53.242;6.974;2023-08-17T01:53:33;5.30;;;2.27;;
52730;SDS011;38624;53.242;6.974;2023-08-17T01:55:58;6.27;;;2.40;;
52730;SDS011;38624;53.242;6.974;2023-08-17T01:58:24;5.63;;;2.50;;
52730;SDS011;38624;53.242;6.974;2023-08-17T02:00:50;6.70;;;3.00;;
52730;SDS011;38624;53.242;6.974;2023-08-17T02:03:15;6.13;;;2.33;;
52730;SDS011;38624;53.242;6.974;2023-08-17T02:05:45;4.80;;;2.70;;
52730;SDS011;38624;53.242;6.974;2023-08-17T02:08:11;14.63;;;3.17;;
52730;SDS011;38624;53.242;6.974;2023-08-17T02:10:37;7.40;;;2.80;;
52730;SDS011;38624;53.242;6.974;2023-08-17T02:13:03;7.80;;;3.23;;
52730;SDS011;38624;53.242;6.974;2023-08-17T02:15:29;6.17;;;3.07;;
52730;SDS011;38624;53.242;6.974;2023-08-17T02:17:55;7.20;;;2.80;;
52730;SDS011;38624;53.242;6.974;2023-08-17T02:22:47;8.98;;;2.78;;
52730;SDS011;38624;53.242;6.974;2023-08-17T02:25:13;6.80;;;3.23;;
52730;SDS011;38624;53.242;6.974;2023-08-17T02:27:38;7.43;;;3.10;;
52730;SDS011;38624;53.242;6.974;2023-08-17T02:30:04;9.17;;;3.00;;
52730;SDS011;38624;53.242;6.974;2023-08-17T02:32:30;8.07;;;3.28;;
52730;SDS011;38624;53.242;6.974;2023-08-17T02:34:56;7.83;;;3.30;;
52730;SDS011;38624;53.242;6.974;2023-08-17T02:37:22;9.53;;;3.40;;
52730;SDS011;38624;53.242;6.974;2023-08-17T02:39:47;8.40;;;3.63;;
52730;SDS011;38624;53.242;6.974;2023-08-17T02:42:13;7.50;;;3.40;;
52730;SDS011;38624;53.242;6.974;2023-08-17T02:44:39;7.67;;;3.53;;
52730;SDS011;38624;53.242;6.974;2023-08-17T02:47:04;7.53;;;3.13;;
52730;SDS011;38624;53.242;6.974;2023-08-17T02:49:30;6.70;;;3.20;;
52730;SDS011;38624;53.242;6.974;2023-08-17T02:51:56;8.70;;;2.60;;
52730;SDS011;38624;53.242;6.974;2023-08-17T02:54:22;5.87;;;2.40;;
52730;SDS011;38624;53.242;6.974;2023-08-17T02:56:47;4.83;;;2.50;;
52730;SDS011;38624;53.242;6.974;2023-08-17T02:59:13;6.20;;;2.80;;
52730;SDS011;38624;53.242;6.974;2023-08-17T03:01:39;8.43;;;3.10;;
52730;SDS011;38624;53.242;6.974;2023-08-17T03:04:04;8.80;;;3.10;;
52730;SDS011;38624;53.242;6.974;2023-08-17T03:06:30;6.50;;;2.83;;
52730;SDS011;38624;53.242;6.974;2023-08-17T03:08:56;6.30;;;3.00;;
52730;SDS011;38624;53.242;6.974;2023-08-17T03:11:21;6.80;;;2.90;;
52730;SDS011;38624;53.242;6.974;2023-08-17T03:13:47;4.07;;;2.23;;
52730;SDS011;38624;53.242;6.974;2023-08-17T03:16:14;5.18;;;2.50;;
52730;SDS011;38624;53.242;6.974;2023-08-17T03:21:06;6.57;;;2.42;;
52730;SDS011;38624;53.242;6.974;2023-08-17T03:23:32;4.77;;;2.40;;
52730;SDS011;38624;53.242;6.974;2023-08-17T03:25:58;5.28;;;2.47;;
52730;SDS011;38624;53.242;6.974;2023-08-17T03:28:24;10.10;;;2.93;;
52730;SDS011;38624;53.242;6.974;2023-08-17T03:33:20;6.13;;;2.55;;
52730;SDS011;38624;53.242;6.974;2023-08-17T03:35:46;6.30;;;2.77;;
52730;SDS011;38624;53.242;6.974;2023-08-17T03:38:11;5.90;;;2.47;;
52730;SDS011;38624;53.242;6.974;2023-08-17T03:40:37;7.07;;;2.40;;
52730;SDS011;38624;53.242;6.974;2023-08-17T03:43:03;7.50;;;2.47;;
52730;SDS011;38624;53.242;6.974;2023-08-17T03:45:29;5.27;;;2.30;;
52730;SDS011;38624;53.242;6.974;2023-08-17T03:50:21;4.40;;;1.98;;
52730;SDS011;38624;53.242;6.974;2023-08-17T03:52:47;6.40;;;2.50;;
52730;SDS011;38624;53.242;6.974;2023-08-17T03:55:12;5.67;;;2.57;;
52730;SDS011;38624;53.242;6.974;2023-08-17T03:57:38;4.70;;;2.30;;
52730;SDS011;38624;53.242;6.974;2023-08-17T04:00:04;5.17;;;2.93;;
52730;SDS011;38624;53.242;6.974;2023-08-17T04:04:56;9.77;;;3.13;;
52730;SDS011;38624;53.242;6.974;2023-08-17T04:07:22;5.30;;;3.07;;
52730;SDS011;38624;53.242;6.974;2023-08-17T04:09:48;8.80;;;3.23;;
52730;SDS011;38624;53.242;6.974;2023-08-17T04:12:14;6.43;;;2.77;;
52730;SDS011;38624;53.242;6.974;2023-08-17T04:14:40;11.77;;;3.30;;
52730;SDS011;38624;53.242;6.974;2023-08-17T04:17:05;5.05;;;3.03;;
52730;SDS011;38624;53.242;6.974;2023-08-17T04:19:32;7.20;;;3.07;;
52730;SDS011;38624;53.242;6.974;2023-08-17T04:21:57;8.40;;;3.23;;
52730;SDS011;38624;53.242;6.974;2023-08-17T04:24:23;7.20;;;2.60;;
52730;SDS011;38624;53.242;6.974;2023-08-17T04:26:49;6.53;;;3.20;;
52730;SDS011;38624;53.242;6.974;2023-08-17T04:29:15;5.67;;;3.10;;
52730;SDS011;38624;53.242;6.974;2023-08-17T04:31:41;6.10;;;2.80;;
52730;SDS011;38624;53.242;6.974;2023-08-17T04:34:06;5.77;;;2.90;;
52730;SDS011;38624;53.242;6.974;2023-08-17T04:36:32;9.17;;;3.20;;
52730;SDS011;38624;53.242;6.974;2023-08-17T04:38:58;5.67;;;2.80;;
52730;SDS011;38624;53.242;6.974;2023-08-17T04:41:24;8.03;;;2.77;;
52730;SDS011;38624;53.242;6.974;2023-08-17T04:43:50;7.43;;;2.57;;
52730;SDS011;38624;53.242;6.974;2023-08-17T04:46:15;7.03;;;2.60;;
52730;SDS011;38624;53.242;6.974;2023-08-17T04:48:41;8.67;;;2.90;;
52730;SDS011;38624;53.242;6.974;2023-08-17T04:51:06;6.27;;;2.70;;
52730;SDS011;38624;53.242;6.974;2023-08-17T04:53:32;8.17;;;2.50;;
52730;SDS011;38624;53.242;6.974;2023-08-17T04:55:58;7.33;;;2.23;;
52730;SDS011;38624;53.242;6.974;2023-08-17T04:58:24;5.57;;;2.50;;
52730;SDS011;38624;53.242;6.974;2023-08-17T05:00:50;8.50;;;3.17;;
52730;SDS011;38624;53.242;6.974;2023-08-17T05:03:16;11.55;;;3.35;;
52730;SDS011;38624;53.242;6.974;2023-08-17T05:05:41;8.37;;;2.50;;
52730;SDS011;38624;53.242;6.974;2023-08-17T05:08:07;6.23;;;2.13;;
52730;SDS011;38624;53.242;6.974;2023-08-17T05:10:33;7.17;;;2.50;;
52730;SDS011;38624;53.242;6.974;2023-08-17T05:12:59;9.47;;;2.63;;
52730;SDS011;38624;53.242;6.974;2023-08-17T05:15:24;5.53;;;3.03;;
52730;SDS011;38624;53.242;6.974;2023-08-17T05:17:50;6.13;;;2.30;;
52730;SDS011;38624;53.242;6.974;2023-08-17T05:20:16;8.13;;;2.50;;
52730;SDS011;38624;53.242;6.974;2023-08-17T05:22:42;8.10;;;2.50;;
52730;SDS011;38624;53.242;6.974;2023-08-17T05:25:08;6.47;;;2.38;;
52730;SDS011;38624;53.242;6.974;2023-08-17T05:27:33;7.00;;;2.40;;
52730;SDS011;38624;53.242;6.974;2023-08-17T05:29:59;4.50;;;2.17;;
52730;SDS011;38624;53.242;6.974;2023-08-17T05:32:25;5.83;;;2.20;;
52730;SDS011;38624;53.242;6.974;2023-08-17T05:34:51;4.20;;;2.30;;
52730;SDS011;38624;53.242;6.974;2023-08-17T05:37:16;5.10;;;2.10;;
52730;SDS011;38624;53.242;6.974;2023-08-17T05:39:43;4.03;;;2.08;;
52730;SDS011;38624;53.242;6.974;2023-08-17T05:42:08;3.67;;;1.83;;
52730;SDS011;38624;53.242;6.974;2023-08-17T05:44:35;9.02;;;3.50;;
52730;SDS011;38624;53.242;6.974;2023-08-17T05:47:00;8.40;;;1.95;;
52730;SDS011;38624;53.242;6.974;2023-08-17T05:49:26;8.63;;;2.90;;
52730;SDS011;38624;53.242;6.974;2023-08-17T05:51:52;6.03;;;2.00;;
52730;SDS011;38624;53.242;6.974;2023-08-17T05:54:18;7.37;;;2.63;;
52730;SDS011;38624;53.242;6.974;2023-08-17T05:56:43;3.13;;;1.90;;
52730;SDS011;38624;53.242;6.974;2023-08-17T05:59:12;7.72;;;2.65;;
52730;SDS011;38624;53.242;6.974;2023-08-17T06:01:39;6.57;;;2.05;;
52730;SDS011;38624;53.242;6.974;2023-08-17T06:04:05;7.57;;;2.30;;
52730;SDS011;38624;53.242;6.974;2023-08-17T06:06:31;8.82;;;2.40;;
52730;SDS011;38624;53.242;6.974;2023-08-17T06:08:57;5.77;;;2.20;;
52730;SDS011;38624;53.242;6.974;2023-08-17T06:11:23;11.97;;;2.37;;
52730;SDS011;38624;53.242;6.974;2023-08-17T06:13:49;6.60;;;2.00;;
52730;SDS011;38624;53.242;6.974;2023-08-17T06:16:15;5.93;;;2.00;;
52730;SDS011;38624;53.242;6.974;2023-08-17T06:18:41;3.85;;;1.80;;
52730;SDS011;38624;53.242;6.974;2023-08-17T06:21:07;5.93;;;1.90;;
52730;SDS011;38624;53.242;6.974;2023-08-17T06:23:33;3.88;;;1.80;;
52730;SDS011;38624;53.242;6.974;2023-08-17T06:25:59;4.50;;;1.73;;
52730;SDS011;38624;53.242;6.974;2023-08-17T06:28:25;4.63;;;2.10;;
52730;SDS011;38624;53.242;6.974;2023-08-17T06:33:18;5.25;;;1.92;;
52730;SDS011;38624;53.242;6.974;2023-08-17T06:35:44;6.18;;;1.70;;
52730;SDS011;38624;53.242;6.974;2023-08-17T06:38:10;4.13;;;1.40;;
52730;SDS011;38624;53.242;6.974;2023-08-17T06:40:36;4.10;;;1.40;;
52730;SDS011;38624;53.242;6.974;2023-08-17T06:43:02;5.10;;;1.60;;
52730;SDS011;38624;53.242;6.974;2023-08-17T06:45:27;4.43;;;1.70;;
52730;SDS011;38624;53.242;6.974;2023-08-17T06:47:53;4.53;;;1.60;;
52730;SDS011;38624;53.242;6.974;2023-08-17T06:50:19;2.77;;;1.33;;
52730;SDS011;38624;53.242;6.974;2023-08-17T06:52:44;2.00;;;1.20;;
52730;SDS011;38624;53.242;6.974;2023-08-17T06:55:10;7.40;;;1.93;;
52730;SDS011;38624;53.242;6.974;2023-08-17T06:57:36;2.70;;;1.20;;
52730;SDS011;38624;53.242;6.974;2023-08-17T07:00:02;1.40;;;1.17;;
52730;SDS011;38624;53.242;6.974;2023-08-17T07:02:30;5.97;;;1.20;;
52730;SDS011;38624;53.242;6.974;2023-08-17T07:04:56;4.22;;;1.17;;
52730;SDS011;38624;53.242;6.974;2023-08-17T07:07:23;3.28;;;1.60;;
52730;SDS011;38624;53.242;6.974;2023-08-17T07:09:49;3.27;;;1.23;;
52730;SDS011;38624;53.242;6.974;2023-08-17T07:12:15;1.07;;;0.90;;
52730;SDS011;38624;53.242;6.974;2023-08-17T07:14:40;6.80;;;1.80;;
52730;SDS011;38624;53.242;6.974;2023-08-17T07:17:06;5.07;;;1.53;;
52730;SDS011;38624;53.242;6.974;2023-08-17T07:19:32;5.80;;;1.60;;
52730;SDS011;38624;53.242;6.974;2023-08-17T07:21:57;4.00;;;1.33;;
52730;SDS011;38624;53.242;6.974;2023-08-17T07:24:23;4.43;;;1.23;;
52730;SDS011;38624;53.242;6.974;2023-08-17T07:26:49;2.87;;;1.17;;
52730;SDS011;38624;53.242;6.974;2023-08-17T07:29:14;4.63;;;1.10;;
52730;SDS011;38624;53.242;6.974;2023-08-17T07:31:40;2.93;;;1.73;;
52730;SDS011;38624;53.242;6.974;2023-08-17T07:34:06;4.83;;;1.20;;
52730;SDS011;38624;53.242;6.974;2023-08-17T07:36:32;3.87;;;1.30;;
52730;SDS011;38624;53.242;6.974;2023-08-17T07:38:58;4.43;;;1.48;;
52730;SDS011;38624;53.242;6.974;2023-08-17T07:41:25;2.67;;;1.10;;
52730;SDS011;38624;53.242;6.974;2023-08-17T07:43:51;4.53;;;1.70;;
52730;SDS011;38624;53.242;6.974;2023-08-17T07:46:17;4.87;;;1.23;;
52730;SDS011;38624;53.242;6.974;2023-08-17T07:48:42;3.03;;;1.13;;
52730;SDS011;38624;53.242;6.974;2023-08-17T07:51:08;6.53;;;1.00;;
52730;SDS011;38624;53.242;6.974;2023-08-17T07:53:34;5.43;;;1.10;;
52730;SDS011;38624;53.242;6.974;2023-08-17T07:56:00;3.33;;;1.27;;
52730;SDS011;38624;53.242;6.974;2023-08-17T07:58:25;3.73;;;1.50;;
52730;SDS011;38624;53.242;6.974;2023-08-17T08:00:51;1.30;;;1.00;;
52730;SDS011;38624;53.242;6.974;2023-08-17T08:03:17;4.13;;;1.40;;
52730;SDS011;38624;53.242;6.974;2023-08-17T08:05:43;4.50;;;1.27;;
52730;SDS011;38624;53.242;6.974;2023-08-17T08:08:09;4.63;;;1.40;;
52730;SDS011;38624;53.242;6.974;2023-08-17T08:10:34;5.67;;;1.10;;
52730;SDS011;38624;53.242;6.974;2023-08-17T08:13:00;3.57;;;1.20;;
52730;SDS011;38624;53.242;6.974;2023-08-17T08:15:26;3.60;;;1.27;;
52730;SDS011;38624;53.242;6.974;2023-08-17T08:17:52;6.87;;;1.47;;
52730;SDS011;38624;53.242;6.974;2023-08-17T08:20:17;5.57;;;1.17;;
52730;SDS011;38624;53.242;6.974;2023-08-17T08:22:43;3.80;;;1.63;;
52730;SDS011;38624;53.242;6.974;2023-08-17T08:25:09;4.23;;;1.40;;
52730;SDS011;38624;53.242;6.974;2023-08-17T08:27:35;4.97;;;1.65;;
52730;SDS011;38624;53.242;6.974;2023-08-17T08:30:01;4.03;;;1.67;;
52730;SDS011;38624;53.242;6.974;2023-08-17T08:32:26;5.10;;;1.20;;
52730;SDS011;38624;53.242;6.974;2023-08-17T08:34:52;7.43;;;1.73;;
52730;SDS011;38624;53.242;6.974;2023-08-17T08:37:17;3.03;;;1.30;;
52730;SDS011;38624;53.242;6.974;2023-08-17T08:39:50;3.97;;;1.20;;
52730;SDS011;38624;53.242;6.974;2023-08-17T08:42:17;3.42;;;1.30;;
52730;SDS011;38624;53.242;6.974;2023-08-17T08:44:44;2.33;;;1.10;;
52730;SDS011;38624;53.242;6.974;2023-08-17T08:47:10;5.13;;;1.45;;
52730;SDS011;38624;53.242;6.974;2023-08-17T08:49:43;4.43;;;1.00;;
52730;SDS011;38624;53.242;6.974;2023-08-17T08:52:22;6.55;;;1.58;;
52730;SDS011;38624;53.242;6.974;2023-08-17T08:54:53;2.33;;;1.20;;
52730;SDS011;38624;53.242;6.974;2023-08-17T08:57:21;6.57;;;1.58;;
52730;SDS011;38624;53.242;6.974;2023-08-17T08:59:47;2.33;;;0.95;;
52730;SDS011;38624;53.242;6.974;2023-08-17T09:02:14;3.05;;;1.20;;
52730;SDS011;38624;53.242;6.974;2023-08-17T09:04:44;3.97;;;1.20;;
52730;SDS011;38624;53.242;6.974;2023-08-17T09:07:13;5.47;;;1.30;;
52730;SDS011;38624;53.242;6.974;2023-08-17T09:09:39;2.90;;;1.23;;
52730;SDS011;38624;53.242;6.974;2023-08-17T09:12:08;3.60;;;1.13;;
52730;SDS011;38624;53.242;6.974;2023-08-17T09:14:36;4.65;;;1.30;;
52730;SDS011;38624;53.242;6.974;2023-08-17T09:17:03;2.85;;;1.30;;
52730;SDS011;38624;53.242;6.974;2023-08-17T09:19:31;3.25;;;1.30;;
52730;SDS011;38624;53.242;6.974;2023-08-17T09:22:00;2.55;;;1.08;;
52730;SDS011;38624;53.242;6.974;2023-08-17T09:24:36;4.35;;;1.10;;
52730;SDS011;38624;53.242;6.974;2023-08-17T09:27:02;4.65;;;1.70;;
52730;SDS011;38624;53.242;6.974;2023-08-17T09:29:29;3.92;;;1.33;;
52730;SDS011;38624;53.242;6.974;2023-08-17T09:32:06;2.25;;;1.20;;
52730;SDS011;38624;53.242;6.974;2023-08-17T09:34:32;2.35;;;1.00;;
52730;SDS011;38624;53.242;6.974;2023-08-17T09:37:04;3.57;;;1.10;;
52730;SDS011;38624;53.242;6.974;2023-08-17T09:39:33;3.60;;;1.35;;
52730;SDS011;38624;53.242;6.974;2023-08-17T09:41:59;4.85;;;1.30;;
52730;SDS011;38624;53.242;6.974;2023-08-17T09:44:25;3.90;;;1.40;;
52730;SDS011;38624;53.242;6.974;2023-08-17T09:46:55;3.30;;;1.60;;
52730;SDS011;38624;53.242;6.974;2023-08-17T09:49:24;4.85;;;1.38;;
52730;SDS011;38624;53.242;6.974;2023-08-17T09:51:50;3.67;;;1.30;;
52730;SDS011;38624;53.242;6.974;2023-08-17T09:54:20;2.60;;;1.23;;
52730;SDS011;38624;53.242;6.974;2023-08-17T09:56:52;1.35;;;1.00;;
52730;SDS011;38624;53.242;6.974;2023-08-17T09:59:18;4.20;;;1.40;;
52730;SDS011;38624;53.242;6.974;2023-08-17T10:01:47;4.75;;;1.42;;
52730;SDS011;38624;53.242;6.974;2023-08-17T10:04:15;3.03;;;1.17;;
52730;SDS011;38624;53.242;6.974;2023-08-17T10:06:45;5.82;;;1.35;;
52730;SDS011;38624;53.242;6.974;2023-08-17T10:09:13;3.78;;;1.60;;
52730;SDS011;38624;53.242;6.974;2023-08-17T10:11:45;6.63;;;1.73;;
52730;SDS011;38624;53.242;6.974;2023-08-17T10:14:15;11.38;;;1.50;;
52730;SDS011;38624;53.242;6.974;2023-08-17T10:16:49;4.88;;;1.88;;
52730;SDS011;38624;53.242;6.974;2023-08-17T10:19:23;4.38;;;1.20;;
52730;SDS011;38624;53.242;6.974;2023-08-17T10:24:37;3.58;;;1.30;;
52730;SDS011;38624;53.242;6.974;2023-08-17T10:27:04;3.80;;;1.10;;
52730;SDS011;38624;53.242;6.974;2023-08-17T10:29:31;5.65;;;1.60;;
52730;SDS011;38624;53.242;6.974;2023-08-17T10:31:58;7.10;;;1.70;;
52730;SDS011;38624;53.242;6.974;2023-08-17T10:34:26;4.13;;;1.77;;
52730;SDS011;38624;53.242;6.974;2023-08-17T10:36:52;4.43;;;1.70;;
52730;SDS011;38624;53.242;6.974;2023-08-17T10:39:29;5.25;;;1.98;;
52730;SDS011;38624;53.242;6.974;2023-08-17T10:41:55;4.43;;;1.70;;
52730;SDS011;38624;53.242;6.974;2023-08-17T10:49:49;4.07;;;1.60;;
52730;SDS011;38624;53.242;6.974;2023-08-17T10:52:24;7.38;;;1.90;;
52730;SDS011;38624;53.242;6.974;2023-08-17T10:54:54;3.47;;;1.80;;
52730;SDS011;38624;53.242;6.974;2023-08-17T10:57:37;3.22;;;1.75;;
52730;SDS011;38624;53.242;6.974;2023-08-17T11:02:56;4.60;;;1.73;;
52730;SDS011;38624;53.242;6.974;2023-08-17T11:05:44;4.35;;;1.85;;
52730;SDS011;38624;53.242;6.974;2023-08-17T11:08:51;3.72;;;1.52;;
52730;SDS011;38624;53.242;6.974;2023-08-17T11:11:21;3.97;;;1.60;;
52730;SDS011;38624;53.242;6.974;2023-08-17T11:13:50;3.33;;;1.70;;
52730;SDS011;38624;53.242;6.974;2023-08-17T11:16:18;3.17;;;1.55;;
52730;SDS011;38624;53.242;6.974;2023-08-17T11:18:45;4.35;;;2.17;;
52730;SDS011;38624;53.242;6.974;2023-08-17T11:21:14;6.43;;;1.92;;
52730;SDS011;38624;53.242;6.974;2023-08-17T11:23:40;5.10;;;1.90;;
52730;SDS011;38624;53.242;6.974;2023-08-17T11:26:06;2.67;;;1.50;;
52730;SDS011;38624;53.242;6.974;2023-08-17T11:28:33;4.78;;;1.90;;
52730;SDS011;38624;53.242;6.974;2023-08-17T11:31:04;4.75;;;2.08;;
52730;SDS011;38624;53.242;6.974;2023-08-17T11:33:32;3.83;;;1.90;;
52730;SDS011;38624;53.242;6.974;2023-08-17T11:35:59;5.40;;;1.70;;
52730;SDS011;38624;53.242;6.974;2023-08-17T11:38:25;3.17;;;1.80;;
52730;SDS011;38624;53.242;6.974;2023-08-17T11:40:54;3.85;;;1.92;;
52730;SDS011;38624;53.242;6.974;2023-08-17T11:43:21;4.10;;;1.90;;
52730;SDS011;38624;53.242;6.974;2023-08-17T11:45:47;6.13;;;1.80;;
52730;SDS011;38624;53.242;6.974;2023-08-17T11:48:13;4.93;;;1.92;;
52730;SDS011;38624;53.242;6.974;2023-08-17T11:50:42;4.60;;;1.83;;
52730;SDS011;38624;53.242;6.974;2023-08-17T11:53:08;4.07;;;1.90;;
52730;SDS011;38624;53.242;6.974;2023-08-17T11:55:34;7.03;;;2.00;;
52730;SDS011;38624;53.242;6.974;2023-08-17T11:58:01;6.50;;;2.00;;
52730;SDS011;38624;53.242;6.974;2023-08-17T12:00:27;5.65;;;1.80;;
52730;SDS011;38624;53.242;6.974;2023-08-17T12:03:01;6.95;;;1.95;;
52730;SDS011;38624;53.242;6.974;2023-08-17T12:05:28;4.07;;;2.00;;
52730;SDS011;38624;53.242;6.974;2023-08-17T12:07:56;4.70;;;2.03;;
52730;SDS011;38624;53.242;6.974;2023-08-17T12:10:23;5.43;;;2.17;;
52730;SDS011;38624;53.242;6.974;2023-08-17T12:12:52;7.32;;;1.90;;
52730;SDS011;38624;53.242;6.974;2023-08-17T12:15:18;4.57;;;2.03;;
52730;SDS011;38624;53.242;6.974;2023-08-17T12:17:47;3.92;;;2.35;;
52730;SDS011;38624;53.242;6.974;2023-08-17T12:20:20;3.47;;;2.03;;
52730;SDS011;38624;53.242;6.974;2023-08-17T12:22:46;5.53;;;2.13;;
52730;SDS011;38624;53.242;6.974;2023-08-17T12:25:12;4.70;;;2.35;;
52730;SDS011;38624;53.242;6.974;2023-08-17T12:27:39;3.10;;;2.13;;
52730;SDS011;38624;53.242;6.974;2023-08-17T12:30:09;4.78;;;1.88;;
52730;SDS011;38624;53.242;6.974;2023-08-17T12:32:38;4.40;;;1.92;;
52730;SDS011;38624;53.242;6.974;2023-08-17T12:35:04;5.60;;;1.80;;
52730;SDS011;38624;53.242;6.974;2023-08-17T12:37:30;3.55;;;1.80;;
52730;SDS011;38624;53.242;6.974;2023-08-17T12:39:55;3.73;;;1.67;;
52730;SDS011;38624;53.242;6.974;2023-08-17T12:42:21;3.10;;;1.77;;
52730;SDS011;38624;53.242;6.974;2023-08-17T12:44:47;3.53;;;2.10;;
52730;SDS011;38624;53.242;6.974;2023-08-17T12:49:39;4.68;;;2.20;;
52730;SDS011;38624;53.242;6.974;2023-08-17T12:52:05;5.90;;;2.00;;
52730;SDS011;38624;53.242;6.974;2023-08-17T12:54:30;7.40;;;2.03;;
52730;SDS011;38624;53.242;6.974;2023-08-17T12:56:56;3.60;;;1.80;;
52730;SDS011;38624;53.242;6.974;2023-08-17T12:59:22;4.07;;;2.03;;
52730;SDS011;38624;53.242;6.974;2023-08-17T13:01:47;2.93;;;1.83;;
52730;SDS011;38624;53.242;6.974;2023-08-17T13:04:13;2.83;;;1.60;;
52730;SDS011;38624;53.242;6.974;2023-08-17T13:06:39;3.97;;;1.87;;
52730;SDS011;38624;53.242;6.974;2023-08-17T13:09:04;5.17;;;1.83;;
52730;SDS011;38624;53.242;6.974;2023-08-17T13:11:30;4.60;;;1.88;;
52730;SDS011;38624;53.242;6.974;2023-08-17T13:13:57;4.00;;;1.90;;
52730;SDS011;38624;53.242;6.974;2023-08-17T13:16:22;6.00;;;2.00;;
52730;SDS011;38624;53.242;6.974;2023-08-17T13:18:48;4.57;;;1.73;;
52730;SDS011;38624;53.242;6.974;2023-08-17T13:21:14;4.67;;;2.10;;
52730;SDS011;38624;53.242;6.974;2023-08-17T13:23:41;4.55;;;1.98;;
52730;SDS011;38624;53.242;6.974;2023-08-17T13:26:07;5.43;;;2.17;;
52730;SDS011;38624;53.242;6.974;2023-08-17T13:28:32;5.03;;;2.00;;
52730;SDS011;38624;53.242;6.974;2023-08-17T13:30:58;2.80;;;1.83;;
52730;SDS011;38624;53.242;6.974;2023-08-17T13:33:24;5.70;;;1.80;;
52730;SDS011;38624;53.242;6.974;2023-08-17T13:35:49;4.03;;;1.90;;
52730;SDS011;38624;53.242;6.974;2023-08-17T13:38:16;3.38;;;1.80;;
52730;SDS011;38624;53.242;6.974;2023-08-17T13:40:42;2.75;;;2.00;;
52730;SDS011;38624;53.242;6.974;2023-08-17T13:43:08;4.63;;;2.30;;
52730;SDS011;38624;53.242;6.974;2023-08-17T13:45:38;3.30;;;2.10;;
52730;SDS011;38624;53.242;6.974;2023-08-17T13:48:07;4.68;;;2.10;;
52730;SDS011;38624;53.242;6.974;2023-08-17T13:50:33;3.05;;;2.10;;
52730;SDS011;38624;53.242;6.974;2023-08-17T13:53:02;6.03;;;2.25;;
52730;SDS011;38624;53.242;6.974;2023-08-17T13:55:28;6.43;;;2.38;;
52730;SDS011;38624;53.242;6.974;2023-08-17T13:57:54;4.13;;;2.43;;
52730;SDS011;38624;53.242;6.974;2023-08-17T14:00:21;3.70;;;2.40;;
52730;SDS011;38624;53.242;6.974;2023-08-17T14:02:47;8.43;;;2.95;;
52730;SDS011;38624;53.242;6.974;2023-08-17T14:05:13;4.67;;;2.37;;
52730;SDS011;38624;53.242;6.974;2023-08-17T14:07:38;4.90;;;2.60;;
52730;SDS011;38624;53.242;6.974;2023-08-17T14:10:04;8.00;;;2.70;;
52730;SDS011;38624;53.242;6.974;2023-08-17T14:12:30;4.80;;;2.88;;
52730;SDS011;38624;53.242;6.974;2023-08-17T14:14:56;4.87;;;2.53;;
52730;SDS011;38624;53.242;6.974;2023-08-17T14:17:22;4.00;;;2.23;;
52730;SDS011;38624;53.242;6.974;2023-08-17T14:19:47;4.43;;;2.20;;
52730;SDS011;38624;53.242;6.974;2023-08-17T14:22:13;5.07;;;2.60;;
52730;SDS011;38624;53.242;6.974;2023-08-17T14:24:39;6.27;;;2.40;;
52730;SDS011;38624;53.242;6.974;2023-08-17T14:27:04;4.63;;;2.37;;
52730;SDS011;38624;53.242;6.974;2023-08-17T14:29:30;4.60;;;2.10;;
52730;SDS011;38624;53.242;6.974;2023-08-17T14:31:56;7.40;;;3.20;;
52730;SDS011;38624;53.242;6.974;2023-08-17T14:34:21;5.83;;;2.20;;
52730;SDS011;38624;53.242;6.974;2023-08-17T14:36:47;3.83;;;2.33;;
52730;SDS011;38624;53.242;6.974;2023-08-17T14:39:13;3.90;;;2.70;;
52730;SDS011;38624;53.242;6.974;2023-08-17T14:41:38;4.33;;;2.40;;
52730;SDS011;38624;53.242;6.974;2023-08-17T14:44:04;4.60;;;2.30;;
52730;SDS011;38624;53.242;6.974;2023-08-17T14:46:30;4.55;;;2.58;;
52730;SDS011;38624;53.242;6.974;2023-08-17T14:48:56;4.67;;;3.00;;
52730;SDS011;38624;53.242;6.974;2023-08-17T14:51:23;4.22;;;2.80;;
52730;SDS011;38624;53.242;6.974;2023-08-17T14:53:49;8.90;;;3.08;;
52730;SDS011;38624;53.242;6.974;2023-08-17T14:56:15;6.27;;;3.00;;
52730;SDS011;38624;53.242;6.974;2023-08-17T14:58:40;6.97;;;2.90;;
52730;SDS011;38624;53.242;6.974;2023-08-17T15:01:06;7.20;;;3.60;;
52730;SDS011;38624;53.242;6.974;2023-08-17T15:03:32;6.67;;;3.30;;
52730;SDS011;38624;53.242;6.974;2023-08-17T15:05:57;4.37;;;3.03;;
52730;SDS011;38624;53.242;6.974;2023-08-17T15:08:23;6.27;;;3.13;;
52730;SDS011;38624;53.242;6.974;2023-08-17T15:10:49;5.43;;;4.10;;
52730;SDS011;38624;53.242;6.974;2023-08-17T15:13:15;5.90;;;3.35;;
52730;SDS011;38624;53.242;6.974;2023-08-17T15:18:08;7.20;;;3.08;;
52730;SDS011;38624;53.242;6.974;2023-08-17T15:20:34;5.05;;;3.10;;
52730;SDS011;38624;53.242;6.974;2023-08-17T15:22:59;6.70;;;3.33;;